Time;durP1;ratioP1;P1;durP2;ratioP2;P2;SDS_P1;SDS_P2;PMS_P1;PMS_P2;Temp;Humidity;BMP_temperature;BMP_pressure;BME280_temperature;BME280_humidity;BME280_pressure;Samples;Min_cycle;Max_cycle;Signal;HPM_P1;HPM_P2
2022/08/02 00:01:39;;;;;;;;;5.00;5.00;;;;;25.30;72.62;101581.81;5018288;28;45337;-70
2022/08/02 00:04:04;;;;;;;;;4.00;4.00;;;;;25.29;72.95;101591.75;5018685;28;45290;-72
2022/08/02 00:06:30;;;;;;;;;6.67;5.00;;;;;25.24;72.85;101591.06;5036210;28;45455;-70
2022/08/02 00:08:55;;;;;;;;;6.00;4.00;;;;;25.23;73.27;101577.59;5034738;28;47803;-71
2022/08/02 00:11:20;;;;;;;;;4.67;4.67;;;;;25.20;73.10;101578.63;5035159;28;64775;-71
2022/08/02 00:13:46;;;;;;;;;4.00;4.00;;;;;25.21;73.81;101572.28;5035977;28;45312;-70
2022/08/02 00:16:12;;;;;;;;;5.00;5.00;;;;;25.15;74.05;101574.34;5034744;28;63576;-71
2022/08/02 00:18:37;;;;;;;;;5.00;5.00;;;;;25.13;73.80;101576.19;5034975;28;46323;-71
2022/08/02 00:21:02;;;;;;;;;5.67;4.00;;;;;25.07;73.82;101572.78;5051833;28;45477;-72
2022/08/02 00:23:28;;;;;;;;;5.00;5.00;;;;;25.07;74.73;101574.59;5035761;28;59776;-72
2022/08/02 00:25:53;;;;;;;;;8.00;6.00;;;;;25.04;74.75;101581.00;5035752;28;45226;-72
2022/08/02 00:28:18;;;;;;;;;4.33;4.33;;;;;24.99;75.09;101574.88;5044733;28;45759;-71
2022/08/02 00:30:44;;;;;;;;;5.00;5.00;;;;;24.95;75.41;101570.50;5038491;28;61864;-70
2022/08/02 00:33:09;;;;;;;;;4.67;4.00;;;;;24.93;74.97;101580.50;5038706;28;57055;-72
2022/08/02 00:35:35;;;;;;;;;6.00;6.00;;;;;24.91;75.35;101567.97;5039211;28;45298;-70
2022/08/02 00:38:02;;;;;;;;;3.67;3.67;;;;;24.86;76.04;101568.13;5039227;28;46280;-72
2022/08/02 00:40:27;;;;;;;;;6.00;4.00;;;;;24.86;75.80;101568.13;5037663;28;45305;-71
2022/08/02 00:43:05;;;;;;;;;4.33;4.00;;;;;24.81;76.51;101571.00;5038934;28;53621;-70
2022/08/02 00:45:31;;;;;;;;;8.00;5.00;;;;;24.79;76.82;101569.31;5058003;28;45516;-72
2022/08/02 00:47:56;;;;;;;;;6.00;6.00;;;;;24.79;77.04;101577.41;5059017;28;46588;-70
2022/08/02 00:50:22;;;;;;;;;6.00;5.00;;;;;24.74;77.15;101574.00;5057506;28;47335;-70
2022/08/02 00:52:47;;;;;;;;;4.33;4.33;;;;;24.75;77.27;101581.16;5057928;28;45637;-72
2022/08/02 00:55:12;;;;;;;;;5.00;5.00;;;;;24.73;77.22;101577.66;5058199;28;62438;-72
2022/08/02 00:57:38;;;;;;;;;4.33;4.33;;;;;24.68;77.93;101580.50;5043670;28;58932;-70
2022/08/02 01:00:05;;;;;;;;;4.00;4.00;;;;;24.68;77.60;101572.41;5038144;28;62060;-70
2022/08/02 01:02:30;;;;;;;;;4.00;4.00;;;;;24.64;78.11;101576.13;5037501;28;45362;-71
2022/08/02 01:04:55;;;;;;;;;4.00;4.00;;;;;24.58;78.51;101570.97;5039216;28;45400;-72
2022/08/02 01:07:21;;;;;;;;;6.33;5.00;;;;;24.56;78.81;101570.16;5038359;28;49876;-71
2022/08/02 01:09:46;;;;;;;;;4.00;4.00;;;;;24.53;79.18;101573.81;5038784;28;46239;-71
2022/08/02 01:12:12;;;;;;;;;4.00;4.00;;;;;24.53;79.16;101573.81;5038091;28;60364;-71
2022/08/02 01:14:38;;;;;;;;;4.00;4.00;;;;;24.47;79.10;101571.34;5037963;28;56835;-71
2022/08/02 01:17:23;;;;;;;;;5.33;4.00;;;;;24.46;79.43;101577.69;5020179;28;46678;-71
2022/08/02 01:20:18;;;;;;;;;6.67;5.00;;;;;24.42;79.67;101586.81;5047361;28;45503;-70
2022/08/02 01:23:05;;;;;;;;;4.33;4.33;;;;;24.40;79.86;101588.69;5039865;28;45434;-72
2022/08/02 01:26:07;;;;;;;;;6.00;5.00;;;;;24.37;80.50;101588.78;5038479;28;45221;-71
2022/08/02 01:28:35;;;;;;;;;4.33;4.33;;;;;24.35;80.51;101590.69;5044642;28;45652;-71
2022/08/02 01:31:23;;;;;;;;;5.00;5.00;;;;;24.31;80.65;101588.97;5045384;28;45521;-72
2022/08/02 01:34:08;;;;;;;;;4.00;4.00;;;;;24.25;80.76;101583.78;5051767;28;45515;-71
2022/08/02 01:36:37;;;;;;;;;5.00;5.00;;;;;24.22;80.97;101589.28;5057411;28;45372;-71
2022/08/02 01:39:04;;;;;;;;;5.67;4.67;;;;;24.21;81.17;101579.41;5058117;28;45493;-71
2022/08/02 01:41:30;;;;;;;;;3.00;3.00;;;;;24.23;80.98;101588.34;5057048;28;45264;-70
2022/08/02 01:43:58;;;;;;;;;5.67;4.33;;;;;24.21;81.21;101580.31;5040345;28;45426;-72
2022/08/02 01:46:26;;;;;;;;;4.00;4.00;;;;;24.20;81.05;101585.75;5056811;28;45624;-71
2022/08/02 01:48:54;;;;;;;;;4.67;4.67;;;;;24.19;81.81;101584.88;5057092;28;47269;-71
2022/08/02 01:52:20;;;;;;;;;6.00;4.67;;;;;24.16;81.89;101581.38;5056501;28;45278;-71
2022/08/02 01:54:06;;;;;;;;;5.33;5.00;;;;;24.12;81.75;101579.72;5056864;28;45535;-70
2022/08/02 01:56:33;;;;;;;;;4.00;4.00;;;;;24.11;81.70;101586.94;5036211;28;45300;-71
2022/08/02 01:58:59;;;;;;;;;4.00;4.00;;;;;24.07;82.25;101585.25;5037356;28;66377;-71
2022/08/02 02:01:25;;;;;;;;;6.00;5.00;;;;;24.06;82.34;101586.19;5036392;28;45347;-70
2022/08/02 02:03:50;;;;;;;;;2.00;2.00;;;;;24.04;82.50;101580.88;5036719;28;45368;-71
2022/08/02 02:06:17;;;;;;;;;5.33;4.33;;;;;24.02;82.79;101579.13;5037077;28;62119;-70
2022/08/02 02:08:43;;;;;;;;;6.00;4.67;;;;;23.94;83.01;101571.31;5035718;28;65250;-71
2022/08/02 02:11:08;;;;;;;;;3.00;3.00;;;;;23.94;82.74;101575.81;5035460;28;66132;-71
2022/08/02 02:13:36;;;;;;;;;5.67;5.67;;;;;23.93;82.70;101574.94;5036524;28;45328;-71
2022/08/02 02:16:03;;;;;;;;;3.67;3.67;;;;;23.90;83.06;101569.63;5036204;28;45383;-70
2022/08/02 02:18:29;;;;;;;;;5.00;4.00;;;;;23.87;83.35;101566.19;5019021;28;66466;-71
2022/08/02 02:20:55;;;;;;;;;4.33;3.00;;;;;23.88;83.45;101573.34;5051535;28;45324;-71
2022/08/02 02:23:21;;;;;;;;;5.00;5.00;;;;;23.84;83.52;101571.66;5036770;28;63147;-70
2022/08/02 02:25:48;;;;;;;;;4.67;4.67;;;;;23.81;83.43;101564.56;5037066;28;60398;-71
2022/08/02 02:28:29;;;;;;;;;5.00;3.33;;;;;23.79;83.55;101567.28;5042970;28;62647;-70
2022/08/02 02:30:59;;;;;;;;;5.00;4.00;;;;;23.78;83.60;101565.53;5037250;28;45324;-71
2022/08/02 02:33:25;;;;;;;;;4.67;4.67;;;;;23.75;84.04;101559.34;5036156;28;45468;-71
2022/08/02 02:35:51;;;;;;;;;4.00;4.00;;;;;23.73;84.06;101569.31;5019034;28;59166;-72
2022/08/02 02:38:18;;;;;;;;;4.00;4.00;;;;;23.71;84.31;101557.69;5036006;28;45511;-71
2022/08/02 02:40:45;;;;;;;;;4.33;4.00;;;;;23.72;84.17;101570.25;5019559;28;45519;-72
2022/08/02 02:43:11;;;;;;;;;3.33;3.33;;;;;23.66;84.61;101560.53;5037263;28;45295;-71
2022/08/02 02:45:38;;;;;;;;;4.00;4.00;;;;;23.68;84.57;101568.56;5036033;28;45353;-72
2022/08/02 02:48:04;;;;;;;;;5.00;5.00;;;;;23.62;85.00;101560.66;5019270;28;45535;-72
2022/08/02 02:50:30;;;;;;;;;5.00;5.00;;;;;23.61;85.06;101561.59;5034982;28;45451;-69
2022/08/02 02:52:56;;;;;;;;;6.00;6.00;;;;;23.58;85.03;101558.97;5036076;28;45506;-70
2022/08/02 02:55:21;;;;;;;;;6.00;5.00;;;;;23.58;84.94;101561.66;5048916;28;45459;-71
2022/08/02 02:57:47;;;;;;;;;4.67;4.00;;;;;23.54;85.32;101560.88;5035578;28;45623;-72
2022/08/02 03:00:13;;;;;;;;;5.00;5.00;;;;;23.55;85.66;101568.06;5035825;28;45868;-72
2022/08/02 03:02:41;;;;;;;;;4.00;4.00;;;;;23.54;85.78;101566.25;5036930;28;45303;-71
2022/08/02 03:05:08;;;;;;;;;4.67;4.67;;;;;23.55;85.79;101564.47;5037138;28;45500;-72
2022/08/02 03:07:34;;;;;;;;;6.00;6.00;;;;;23.50;85.68;101559.22;5036524;28;45510;-70
2022/08/02 03:10:00;;;;;;;;;5.00;5.00;;;;;23.52;85.96;101570.81;5035637;28;45266;-72
2022/08/02 03:12:26;;;;;;;;;5.33;5.00;;;;;23.49;85.79;101565.56;5035710;28;45241;-70
2022/08/02 03:14:52;;;;;;;;;7.00;5.33;;;;;23.48;86.00;101559.25;5036907;28;45268;-71
2022/08/02 03:17:17;;;;;;;;;4.33;4.33;;;;;23.46;86.27;101562.94;5035031;28;46314;-71
2022/08/02 03:19:44;;;;;;;;;5.00;5.00;;;;;23.46;86.41;101566.50;5043476;28;45302;-70
2022/08/02 03:22:10;;;;;;;;;4.67;4.67;;;;;23.44;86.35;101560.28;5042693;28;45273;-70
2022/08/02 03:24:35;;;;;;;;;5.00;5.00;;;;;23.43;86.66;101560.31;5035719;28;45458;-72
2022/08/02 03:27:01;;;;;;;;;6.67;5.00;;;;;23.37;87.04;101553.31;5042073;28;46673;-69
2022/08/02 03:29:26;;;;;;;;;4.00;4.00;;;;;23.34;86.98;101556.13;5036740;28;45449;-72
2022/08/02 03:31:52;;;;;;;;;4.00;4.00;;;;;23.34;87.16;101561.50;5036545;28;45234;-71
2022/08/02 03:34:17;;;;;;;;;5.00;5.00;;;;;23.26;87.17;101548.25;5036664;28;45532;-70
2022/08/02 03:36:47;;;;;;;;;6.00;6.00;;;;;23.26;87.64;101555.44;5035400;28;69179;-70
2022/08/02 03:39:13;;;;;;;;;6.00;5.00;;;;;23.24;87.67;101557.31;5036591;28;45300;-73
2022/08/02 03:41:38;;;;;;;;;5.00;5.00;;;;;23.25;87.49;101559.09;5036605;28;45304;-70
2022/08/02 03:44:04;;;;;;;;;7.00;5.00;;;;;23.22;87.50;101559.16;5018377;28;58057;-72
2022/08/02 03:46:30;;;;;;;;;5.33;5.33;;;;;23.23;87.94;101558.25;5035887;28;45548;-70
2022/08/02 03:48:55;;;;;;;;;7.00;5.00;;;;;23.24;87.46;101557.31;5035912;28;61623;-72
2022/08/02 03:51:21;;;;;;;;;5.67;4.00;;;;;23.21;87.67;101554.69;5034891;28;45330;-70
2022/08/02 03:53:47;;;;;;;;;3.00;2.00;;;;;23.19;87.65;101557.44;5042652;28;60749;-71
2022/08/02 03:56:13;;;;;;;;;4.00;4.00;;;;;23.16;87.85;101553.97;5037112;28;46449;-71
2022/08/02 03:58:39;;;;;;;;;6.33;5.00;;;;;23.13;88.16;101554.06;5035832;28;60457;-72
2022/08/02 04:01:04;;;;;;;;;5.00;5.00;;;;;23.11;87.82;101542.44;5035026;28;45342;-72
2022/08/02 04:03:29;;;;;;;;;6.00;5.00;;;;;23.12;88.03;101542.41;5039358;28;46267;-72
2022/08/02 04:05:55;;;;;;;;;5.33;5.33;;;;;23.13;87.69;101545.97;5039628;28;45913;-70
2022/08/02 04:08:20;;;;;;;;;6.00;5.00;;;;;23.13;88.19;101545.97;5038986;28;63620;-71
2022/08/02 04:13:33;;;;;;;;;6.00;4.33;;;;;23.11;88.16;101546.00;5038892;28;45415;-72
2022/08/02 04:16:20;;;;;;;;;5.67;5.00;;;;;23.12;88.19;101552.31;5037476;28;46650;-70
2022/08/02 04:18:55;;;;;;;;;6.33;3.67;;;;;23.08;88.40;101538.03;5038362;28;45340;-72
2022/08/02 04:21:23;;;;;;;;;6.00;6.00;;;;;23.02;88.13;101535.53;5038292;28;45369;-70
2022/08/02 04:23:49;;;;;;;;;6.00;6.00;;;;;22.99;88.29;101541.88;5039850;28;45567;-71
2022/08/02 04:26:15;;;;;;;;;4.33;4.33;;;;;23.03;88.51;101549.88;5039989;28;46614;-71
2022/08/02 04:28:41;;;;;;;;;4.00;4.00;;;;;23.01;88.07;101544.53;5026781;28;45270;-70
2022/08/02 04:31:08;;;;;;;;;6.67;4.33;;;;;22.96;88.22;101541.97;5021776;28;45399;-70
2022/08/02 04:33:33;;;;;;;;;5.67;5.67;;;;;22.98;88.13;101550.88;5038298;28;45602;-72
2022/08/02 04:35:59;;;;;;;;;5.00;4.00;;;;;22.96;88.25;101547.38;5037928;28;45297;-70
2022/08/02 04:38:25;;;;;;;;;3.67;3.67;;;;;22.96;88.49;101557.25;5020428;28;69649;-71
2022/08/02 04:40:52;;;;;;;;;5.00;4.00;;;;;22.94;88.76;101553.72;5038063;28;45340;-71
2022/08/02 04:43:18;;;;;;;;;6.00;4.67;;;;;22.92;88.53;101551.06;5039304;28;45518;-72
2022/08/02 04:45:43;;;;;;;;;4.33;4.33;;;;;22.91;88.62;101556.50;5038089;28;46547;-70
2022/08/02 04:48:09;;;;;;;;;5.67;5.00;;;;;22.91;88.67;101549.31;5037799;28;45293;-71
2022/08/02 04:50:34;;;;;;;;;5.00;5.00;;;;;22.90;89.04;101555.59;5042833;28;60405;-72
2022/08/02 04:53:00;;;;;;;;;5.33;4.00;;;;;22.88;89.11;101552.06;5025865;28;53976;-70
2022/08/02 04:55:27;;;;;;;;;3.33;3.33;;;;;22.88;89.35;101553.88;5056134;28;46449;-71
2022/08/02 04:57:53;;;;;;;;;4.00;4.00;;;;;22.87;89.30;101552.09;5058991;28;45569;-71
2022/08/02 05:00:19;;;;;;;;;3.67;3.67;;;;;22.89;89.25;101561.03;5032247;28;45349;-70
2022/08/02 05:02:44;;;;;;;;;5.33;4.00;;;;;22.85;89.41;101556.63;5021037;28;45721;-72
2022/08/02 05:05:10;;;;;;;;;4.00;4.00;;;;;22.87;89.38;101558.34;5037580;28;45704;-72
2022/08/02 05:07:35;;;;;;;;;4.67;4.67;;;;;22.89;89.70;101561.03;5037027;28;52118;-71
2022/08/02 05:10:00;;;;;;;;;6.00;4.00;;;;;22.87;89.50;101561.06;5038110;28;61378;-70
2022/08/02 05:12:26;;;;;;;;;4.67;4.67;;;;;22.89;89.40;101555.66;5038387;28;45430;-71
2022/08/02 05:14:51;;;;;;;;;7.00;5.00;;;;;22.90;89.83;101563.66;5038478;28;45844;-70
2022/08/02 05:17:16;;;;;;;;;8.33;5.67;;;;;22.89;89.61;101559.22;5036476;28;54937;-70
2022/08/02 05:19:42;;;;;;;;;4.67;4.33;;;;;22.87;89.63;101558.34;5046696;28;45507;-71
2022/08/02 05:22:07;;;;;;;;;3.33;3.33;;;;;22.89;89.48;101561.03;5043798;28;61827;-71
2022/08/02 05:24:32;;;;;;;;;4.00;4.00;;;;;22.89;89.22;101558.34;5037920;28;61260;-70
2022/08/02 05:26:58;;;;;;;;;5.33;4.00;;;;;22.89;88.71;101569.09;5044375;28;45376;-71
2022/08/02 05:29:23;;;;;;;;;4.00;4.00;;;;;22.88;89.16;101570.94;5037926;28;58995;-72
2022/08/02 05:31:49;;;;;;;;;4.00;4.00;;;;;22.87;88.87;101569.13;5037644;28;60937;-72
2022/08/02 05:34:14;;;;;;;;;3.33;3.33;;;;;22.85;88.76;101565.59;5038243;28;46079;-69
2022/08/02 05:36:39;;;;;;;;;4.67;4.67;;;;;22.86;88.75;101567.38;5038403;28;45194;-71
2022/08/02 05:39:05;;;;;;;;;4.00;4.00;;;;;22.87;88.48;101561.06;5037215;28;45255;-72
2022/08/02 05:41:30;;;;;;;;;4.33;3.00;;;;;22.88;88.40;101562.84;5037604;28;61920;-70
2022/08/02 05:43:55;;;;;;;;;3.67;3.67;;;;;22.88;88.38;101557.47;5037465;28;65632;-71
2022/08/02 05:46:21;;;;;;;;;4.33;3.00;;;;;22.91;87.86;101562.78;5037259;28;66897;-72
2022/08/02 05:48:46;;;;;;;;;5.00;4.33;;;;;22.90;88.14;101562.78;5037778;28;58841;-72
2022/08/02 05:51:21;;;;;;;;;3.00;3.00;;;;;22.88;88.24;101572.75;5044282;28;57919;-72
2022/08/02 05:53:50;;;;;;;;;4.67;4.00;;;;;22.88;88.53;101568.22;5050405;28;45425;-72
2022/08/02 05:56:23;;;;;;;;;3.00;3.00;;;;;22.86;88.20;101566.50;5057987;28;45384;-71
2022/08/02 05:58:50;;;;;;;;;5.33;4.00;;;;;22.84;88.15;101571.00;5058325;28;45443;-70
2022/08/02 06:01:24;;;;;;;;;4.67;4.67;;;;;22.78;88.19;101560.41;5039662;28;45439;-70
2022/08/02 06:03:51;;;;;;;;;4.33;3.33;;;;;22.78;88.44;101565.81;5020753;28;46379;-71
2022/08/02 06:06:22;;;;;;;;;4.33;4.33;;;;;22.81;88.43;101565.72;5037929;28;45220;-72
2022/08/02 06:08:58;;;;;;;;;5.00;3.00;;;;;22.78;88.93;101555.91;5038247;28;45302;-69
2022/08/02 06:11:33;;;;;;;;;3.33;3.00;;;;;22.81;88.83;101563.91;5045519;28;45376;-71
2022/08/02 06:13:59;;;;;;;;;4.00;4.00;;;;;22.83;88.95;101564.75;5057616;28;46540;-70
2022/08/02 06:16:26;;;;;;;;;3.67;3.00;;;;;22.85;88.17;101564.69;5056804;28;59876;-72
2022/08/02 06:18:52;;;;;;;;;5.00;3.67;;;;;22.87;88.68;101562.88;5057372;28;45461;-71
2022/08/02 06:21:20;;;;;;;;;4.00;3.67;;;;;22.90;88.67;101574.44;5050404;28;49232;-72
2022/08/02 06:23:47;;;;;;;;;4.00;4.00;;;;;22.88;88.50;101570.03;5036367;28;46594;-70
2022/08/02 06:26:12;;;;;;;;;6.67;5.00;;;;;22.89;88.64;101570.00;5036948;28;45462;-70
2022/08/02 06:28:38;;;;;;;;;4.00;4.00;;;;;22.89;88.69;101578.06;5039073;28;59321;-70
2022/08/02 06:31:06;;;;;;;;;6.00;4.00;;;;;22.91;88.59;101572.66;5057774;28;45514;-72
2022/08/02 06:33:32;;;;;;;;;7.00;5.00;;;;;22.95;88.85;101580.59;5057277;28;46483;-71
2022/08/02 06:36:03;;;;;;;;;5.67;4.00;;;;;22.98;88.31;101576.94;5057721;28;45216;-71
2022/08/02 06:38:33;;;;;;;;;6.00;3.67;;;;;23.01;87.99;101582.25;5057751;28;45302;-70
2022/08/02 06:41:07;;;;;;;;;6.00;4.00;;;;;23.00;88.17;101570.56;5039564;28;45245;-71
2022/08/02 06:43:38;;;;;;;;;4.00;4.00;;;;;23.05;87.75;101578.50;5057072;28;45488;-71
2022/08/02 06:46:03;;;;;;;;;6.00;4.00;;;;;23.05;87.70;101578.50;5057258;28;45482;-72
2022/08/02 06:48:30;;;;;;;;;3.00;3.00;;;;;23.11;87.75;101590.94;5056687;28;56276;-72
2022/08/02 06:50:56;;;;;;;;;4.67;3.00;;;;;23.14;87.46;101588.16;5038460;28;45642;-70
2022/08/02 06:53:21;;;;;;;;;4.67;4.00;;;;;23.16;87.00;101591.69;5051431;28;67417;-70
2022/08/02 06:55:46;;;;;;;;;4.67;3.00;;;;;23.16;86.71;101592.56;5056740;28;59360;-71
2022/08/02 06:58:12;;;;;;;;;2.33;2.33;;;;;23.17;86.62;101591.66;5056298;28;61914;-71
2022/08/02 07:00:39;;;;;;;;;3.67;3.67;;;;;23.22;86.55;101592.41;5045440;28;45233;-72
2022/08/02 07:03:05;;;;;;;;;3.00;3.00;;;;;23.25;86.01;101591.41;5035606;28;46001;-69
2022/08/02 07:05:30;;;;;;;;;3.00;3.00;;;;;23.24;86.14;101593.22;5019019;28;45384;-72
2022/08/02 07:07:55;;;;;;;;;2.67;2.67;;;;;23.27;85.78;101582.34;5036995;28;55838;-71
2022/08/02 07:10:21;;;;;;;;;4.00;3.67;;;;;23.32;85.99;101589.41;5036708;28;60800;-70
2022/08/02 07:12:46;;;;;;;;;3.00;3.00;;;;;23.38;85.71;101584.72;5036670;28;45789;-71
2022/08/02 07:15:11;;;;;;;;;2.33;2.33;;;;;23.41;84.75;101587.34;5035644;28;66342;-72
2022/08/02 07:17:37;;;;;;;;;4.00;2.33;;;;;23.48;85.45;101590.72;5035176;28;45336;-71
2022/08/02 07:20:03;;;;;;;;;3.00;3.00;;;;;23.51;84.84;101594.22;5047632;28;45285;-72
2022/08/02 07:22:28;;;;;;;;;3.00;3.00;;;;;23.55;84.84;101591.44;5039477;28;46010;-70
2022/08/02 07:24:58;;;;;;;;;5.00;3.33;;;;;23.62;84.42;101598.41;5036718;28;45376;-72
2022/08/02 07:27:24;;;;;;;;;5.33;2.33;;;;;23.59;83.88;101585.88;5043834;28;45498;-72
2022/08/02 07:29:49;;;;;;;;;4.67;3.33;;;;;23.66;83.32;101592.00;5037263;28;45360;-69
2022/08/02 07:32:20;;;;;;;;;3.33;3.33;;;;;23.70;83.76;101599.97;5035508;28;45736;-72
2022/08/02 07:34:46;;;;;;;;;5.33;3.00;;;;;23.73;83.54;101599.84;5018981;28;45530;-71
2022/08/02 07:37:12;;;;;;;;;3.00;3.00;;;;;23.76;83.03;101593.50;5039537;28;45202;-70
2022/08/02 07:39:37;;;;;;;;;6.33;4.00;;;;;23.77;83.25;101596.13;5039499;28;64476;-71
2022/08/02 07:42:02;;;;;;;;;4.33;4.00;;;;;23.81;82.93;101596.00;5039012;28;69045;-72
2022/08/02 07:44:33;;;;;;;;;3.00;3.00;;;;;23.84;82.55;101596.81;5039793;28;45334;-71
2022/08/02 07:46:59;;;;;;;;;4.00;3.00;;;;;23.86;82.85;101589.53;5039687;28;45279;-70
2022/08/02 07:49:24;;;;;;;;;2.33;2.33;;;;;23.88;82.47;101593.09;5039868;28;45506;-70
2022/08/02 07:51:50;;;;;;;;;2.00;2.00;;;;;23.92;82.34;101591.19;5039195;28;63426;-72
2022/08/02 07:54:15;;;;;;;;;5.33;4.00;;;;;23.95;81.99;101594.66;5050023;28;62696;-70
2022/08/02 07:56:40;;;;;;;;;5.00;3.00;;;;;24.00;82.53;101594.50;5053613;28;57737;-71
2022/08/02 07:59:06;;;;;;;;;2.00;2.00;;;;;24.03;81.82;101598.00;5039321;28;57885;-72
2022/08/02 08:01:31;;;;;;;;;4.00;4.00;;;;;24.08;81.63;101600.53;5039629;28;46581;-70
2022/08/02 08:03:56;;;;;;;;;4.00;3.00;;;;;24.08;81.31;101595.16;5038476;28;45418;-72
2022/08/02 08:06:22;;;;;;;;;5.00;4.00;;;;;24.13;80.91;101595.88;5039921;28;45305;-72
2022/08/02 08:08:47;;;;;;;;;2.67;2.67;;;;;24.13;80.46;101589.56;5039574;28;54483;-71
2022/08/02 08:11:13;;;;;;;;;3.67;3.67;;;;;24.16;80.74;101592.19;5038718;28;65744;-70
2022/08/02 08:13:38;;;;;;;;;4.00;2.33;;;;;24.17;80.53;101585.84;5037879;28;60990;-70
2022/08/02 08:16:05;;;;;;;;;4.00;3.33;;;;;24.21;80.46;101592.91;5039104;28;45312;-71
2022/08/02 08:18:30;;;;;;;;;3.00;3.00;;;;;24.22;80.12;101586.56;5039613;28;45229;-71
2022/08/02 08:20:55;;;;;;;;;4.00;4.00;;;;;24.25;79.83;101586.47;5052273;28;46590;-70
2022/08/02 08:23:21;;;;;;;;;3.00;3.00;;;;;24.27;79.96;101581.91;5037566;28;60092;-70
2022/08/02 08:25:47;;;;;;;;;2.00;2.00;;;;;24.28;79.17;101581.84;5038321;28;45301;-71
2022/08/02 08:28:12;;;;;;;;;3.00;3.00;;;;;24.31;79.63;101580.88;5027701;28;45578;-72
2022/08/02 08:30:39;;;;;;;;;5.00;3.33;;;;;24.37;79.94;101575.28;5038441;28;61429;-71
2022/08/02 08:33:04;;;;;;;;;2.00;2.00;;;;;24.45;79.83;101577.72;5039402;28;45353;-72
2022/08/02 08:35:30;;;;;;;;;3.00;3.00;;;;;24.50;79.26;101575.75;5039321;28;45440;-71
2022/08/02 08:37:55;;;;;;;;;3.00;3.00;;;;;24.55;79.15;101571.97;5038915;28;58950;-70
2022/08/02 08:40:20;;;;;;;;;4.00;4.00;;;;;24.62;78.49;101574.44;5038366;28;59251;-70
2022/08/02 08:42:46;;;;;;;;;2.00;2.00;;;;;24.63;78.68;101565.41;5037336;28;64586;-72
2022/08/02 08:45:11;;;;;;;;;4.00;4.00;;;;;24.68;78.38;101569.69;5038741;28;45206;-72
2022/08/02 08:47:39;;;;;;;;;2.67;2.67;;;;;24.75;78.34;101581.16;5038045;28;47313;-70
2022/08/02 08:50:07;;;;;;;;;3.33;3.33;;;;;24.77;78.15;101576.59;5174194;22;46218;-71
2022/08/02 08:52:41;;;;;;;;;3.00;3.00;;;;;24.81;77.63;101583.63;5057696;28;45374;-72
2022/08/02 08:55:08;;;;;;;;;4.00;2.33;;;;;24.80;76.86;101568.38;5049911;28;45510;-72
2022/08/02 08:57:37;;;;;;;;;4.67;3.00;;;;;24.83;77.35;101570.97;5040731;28;45277;-72
2022/08/02 09:00:03;;;;;;;;;4.67;3.33;;;;;24.88;77.05;101566.28;5037747;28;45900;-71
2022/08/02 09:02:33;;;;;;;;;7.67;4.67;;;;;24.88;76.41;101566.28;5038655;28;45359;-72
2022/08/02 09:04:59;;;;;;;;;4.00;3.00;;;;;24.89;76.19;101565.34;5037822;28;45273;-70
2022/08/02 09:07:24;;;;;;;;;2.00;2.00;;;;;24.93;76.22;101563.38;5037402;28;45407;-72
2022/08/02 09:09:50;;;;;;;;;4.33;3.67;;;;;24.92;76.39;101562.50;5038848;28;46296;-71
2022/08/02 09:12:16;;;;;;;;;4.33;3.00;;;;;24.93;76.11;101564.28;5038027;28;63103;-70
2022/08/02 09:14:42;;;;;;;;;4.00;4.00;;;;;24.95;76.52;101567.81;5038783;28;45277;-71
2022/08/02 09:17:09;;;;;;;;;3.00;3.00;;;;;25.00;75.32;101564.94;5037100;28;45608;-72
2022/08/02 09:19:35;;;;;;;;;3.00;3.00;;;;;25.01;75.78;101555.88;5045519;28;45706;-71
2022/08/02 09:22:11;;;;;;;;;4.00;4.00;;;;;25.06;75.54;101556.63;5045375;28;45514;-71
2022/08/02 09:24:50;;;;;;;;;3.67;3.67;;;;;25.07;75.87;101552.97;5038424;28;45280;-72
2022/08/02 09:27:20;;;;;;;;;4.33;3.00;;;;;25.11;76.17;101559.16;5042970;28;45344;-70
2022/08/02 09:29:50;;;;;;;;;6.67;4.00;;;;;25.14;76.46;101546.44;5038595;28;45371;-71
2022/08/02 09:32:17;;;;;;;;;7.67;4.00;;;;;25.19;76.51;101549.81;5020548;28;45401;-72
2022/08/02 09:34:50;;;;;;;;;6.00;4.00;;;;;25.23;75.76;101547.88;5038410;28;45262;-72
2022/08/02 09:37:26;;;;;;;;;6.00;4.00;;;;;25.27;75.29;101546.81;5037044;28;45606;-70
2022/08/02 09:39:51;;;;;;;;;5.00;2.00;;;;;25.28;75.18;101543.16;5037028;28;46319;-72
2022/08/02 09:42:17;;;;;;;;;3.00;3.00;;;;;25.29;75.88;101539.53;5038229;28;45464;-71
2022/08/02 09:44:56;;;;;;;;;3.33;3.33;;;;;25.33;75.81;101539.34;5037746;28;52838;-71
2022/08/02 09:47:22;;;;;;;;;4.33;4.33;;;;;25.39;75.60;101543.63;5037898;28;45323;-72
2022/08/02 09:49:47;;;;;;;;;4.00;3.00;;;;;25.44;75.49;101541.63;5037774;28;45425;-71
2022/08/02 09:52:13;;;;;;;;;6.00;3.67;;;;;25.47;74.56;101535.22;5037436;28;68934;-73
2022/08/02 09:54:39;;;;;;;;;4.00;4.00;;;;;25.50;75.13;101532.38;5050768;28;45289;-72
2022/08/02 09:57:05;;;;;;;;;5.33;4.00;;;;;25.55;75.55;101527.69;5048795;28;45684;-71
2022/08/02 09:59:30;;;;;;;;;5.33;4.00;;;;;25.64;74.86;101534.56;5036773;28;69560;-70
2022/08/02 10:01:57;;;;;;;;;4.33;3.00;;;;;25.68;74.98;101530.78;5037831;28;45270;-71
2022/08/02 10:04:24;;;;;;;;;3.00;3.00;;;;;25.75;74.91;101532.31;5037980;28;45470;-71
2022/08/02 10:06:52;;;;;;;;;5.67;4.00;;;;;25.80;74.54;101525.78;5038087;28;45451;-72
2022/08/02 10:09:18;;;;;;;;;3.00;3.00;;;;;25.85;74.40;101521.06;5037758;28;46159;-72
2022/08/02 10:11:44;;;;;;;;;4.00;4.00;;;;;25.89;73.81;101523.59;5036262;28;45439;-72
2022/08/02 10:14:09;;;;;;;;;6.00;4.00;;;;;25.94;72.49;101519.81;5036521;28;45262;-72
2022/08/02 10:16:37;;;;;;;;;4.00;4.00;;;;;25.97;73.27;101521.47;5037452;28;45478;-72
2022/08/02 10:19:03;;;;;;;;;3.67;3.00;;;;;26.00;72.71;101513.25;5039703;28;45656;-71
2022/08/02 10:21:29;;;;;;;;;5.00;5.00;;;;;26.09;72.32;101529.94;5049083;28;45252;-71
2022/08/02 10:24:07;;;;;;;;;4.67;3.00;;;;;26.12;71.86;101519.00;5037588;28;45375;-72
2022/08/02 10:26:33;;;;;;;;;4.67;3.67;;;;;26.18;72.19;101522.41;5039530;28;45544;-70
2022/08/02 10:28:59;;;;;;;;;6.00;4.67;;;;;26.24;72.04;101524.84;5040101;28;45451;-71
2022/08/02 10:31:30;;;;;;;;;2.67;2.67;;;;;26.27;70.93;101527.41;5036215;28;45302;-71
2022/08/02 10:33:57;;;;;;;;;2.67;2.67;;;;;26.31;69.91;101521.81;5036213;28;45347;-72
2022/08/02 10:36:25;;;;;;;;;3.00;3.00;;;;;26.33;69.11;101514.50;5037644;28;45300;-70
2022/08/02 10:38:53;;;;;;;;;2.00;2.00;;;;;26.41;68.70;101524.97;5037266;28;46571;-72
2022/08/02 10:41:48;;;;;;;;;3.00;3.00;;;;;26.47;68.08;101522.03;5019399;28;46437;-72
2022/08/02 10:44:30;;;;;;;;;4.00;2.00;;;;;26.52;67.58;101524.53;5047573;28;45245;-71
2022/08/02 10:47:13;;;;;;;;;4.00;2.67;;;;;26.55;66.88;101519.00;5057218;28;45327;-71
2022/08/02 10:49:59;;;;;;;;;3.00;3.00;;;;;26.60;67.04;101508.81;5056787;28;45907;-72
2022/08/02 10:52:28;;;;;;;;;2.00;2.00;;;;;26.65;66.47;101509.50;5057181;28;45371;-71
2022/08/02 10:55:02;;;;;;;;;3.00;3.00;;;;;26.70;66.19;101521.00;5056824;28;45467;-71
2022/08/02 10:57:33;;;;;;;;;3.00;3.00;;;;;26.77;65.72;101518.91;5039295;28;45607;-72
2022/08/02 11:00:13;;;;;;;;;3.00;3.00;;;;;26.85;63.54;101516.72;5038820;28;46609;-70
2022/08/02 11:02:43;;;;;;;;;4.00;4.00;;;;;26.90;63.53;101514.69;5055680;28;45367;-72
2022/08/02 11:05:14;;;;;;;;;3.67;3.00;;;;;26.97;64.79;101510.72;5058860;28;45308;-70
2022/08/02 11:07:41;;;;;;;;;3.00;3.00;;;;;27.04;65.02;101508.59;5057409;28;45526;-72
2022/08/02 11:10:24;;;;;;;;;2.67;2.67;;;;;27.11;64.20;101502.88;5055518;28;46768;-71
2022/08/02 11:13:03;;;;;;;;;2.33;2.33;;;;;27.20;63.77;101497.94;5056996;28;45386;-71
2022/08/02 11:15:29;;;;;;;;;4.00;3.00;;;;;27.27;63.62;101496.69;5038469;28;45415;-71
2022/08/02 11:17:58;;;;;;;;;4.00;2.33;;;;;27.31;63.34;101491.03;5056030;28;46502;-72
2022/08/02 11:20:25;;;;;;;;;3.00;3.00;;;;;27.42;62.73;101491.41;5056491;28;46805;-72
2022/08/02 11:22:52;;;;;;;;;2.00;2.00;;;;;27.47;62.75;101483.03;5036737;28;45402;-72
2022/08/02 11:25:23;;;;;;;;;4.33;4.33;;;;;27.58;62.99;101496.06;5036506;28;45447;-73
2022/08/02 11:27:48;;;;;;;;;3.00;3.00;;;;;27.66;62.92;101486.63;5042716;28;47256;-71
2022/08/02 11:30:14;;;;;;;;;4.67;3.33;;;;;27.75;62.54;101487.13;5036607;28;45496;-72